Time;durP1;ratioP1;P1;durP2;ratioP2;P2;SDS_P1;SDS_P2;PMS_P1;PMS_P2;Temp;Humidity;BMP_temperature;BMP_pressure;BME280_temperature;BME280_humidity;BME280_pressure;Samples;Min_cycle;Max_cycle;Signal;HPM_P1;HPM_P2
2023/05/23 00:01:57;;;;;;;13.55;7.60;;;;;;;;;;5072401;28;20040;-64
2023/05/23 00:04:25;;;;;;;15.80;7.93;;;;;;;;;;5072618;28;20420;-64
2023/05/23 00:06:53;;;;;;;12.38;7.18;;;;;;;;;;5054937;28;20040;-64
2023/05/23 00:09:21;;;;;;;12.85;7.95;;;;;;;;;;5072424;28;20042;-64
2023/05/23 00:11:48;;;;;;;12.35;8.40;;;;;;;;;;5072302;28;20552;-63
2023/05/23 00:14:16;;;;;;;14.32;8.40;;;;;;;;;;5072447;28;20036;-64
2023/05/23 00:16:48;;;;;;;13.88;7.93;;;;;;;;;;5072486;28;20040;-64
2023/05/23 00:19:16;;;;;;;11.30;8.00;;;;;;;;;;5072399;28;20124;-64
2023/05/23 00:21:44;;;;;;;19.17;8.27;;;;;;;;;;5072573;28;20513;-64
2023/05/23 00:24:12;;;;;;;12.90;8.00;;;;;;;;;;5055044;28;20036;-64
2023/05/23 00:26:39;;;;;;;12.68;7.93;;;;;;;;;;5072535;28;20437;-64
2023/05/23 00:29:07;;;;;;;17.83;8.80;;;;;;;;;;5072405;28;20037;-64
2023/05/23 00:31:34;;;;;;;13.90;8.82;;;;;;;;;;5054028;28;20036;-64
2023/05/23 00:34:02;;;;;;;13.70;8.23;;;;;;;;;;5072309;28;20418;-64
2023/05/23 00:36:29;;;;;;;17.05;8.68;;;;;;;;;;5054159;28;20049;-64
2023/05/23 00:38:57;;;;;;;12.55;8.73;;;;;;;;;;5037673;28;20139;-64
2023/05/23 00:41:25;;;;;;;12.43;9.07;;;;;;;;;;5054181;28;20063;-64
2023/05/23 00:43:53;;;;;;;14.30;7.75;;;;;;;;;;5054302;28;20044;-64
2023/05/23 00:46:20;;;;;;;11.80;8.45;;;;;;;;;;5054151;28;20032;-64
2023/05/23 00:48:48;;;;;;;15.45;8.18;;;;;;;;;;5072185;28;20055;-64
2023/05/23 00:51:17;;;;;;;14.45;8.38;;;;;;;;;;5054554;28;20497;-64
2023/05/23 00:53:44;;;;;;;14.70;8.38;;;;;;;;;;5054060;28;20041;-64
2023/05/23 00:56:12;;;;;;;12.02;8.45;;;;;;;;;;5072058;28;20036;-64
2023/05/23 00:58:40;;;;;;;13.93;8.23;;;;;;;;;;5057082;28;20072;-64
2023/05/23 01:01:08;;;;;;;13.90;8.20;;;;;;;;;;5057824;28;20425;-64
2023/05/23 01:03:36;;;;;;;13.90;8.48;;;;;;;;;;5057704;28;20102;-64
2023/05/23 01:06:04;;;;;;;11.13;8.32;;;;;;;;;;5057776;28;20044;-64
2023/05/23 01:08:31;;;;;;;15.05;8.35;;;;;;;;;;5075623;28;20464;-64
2023/05/23 01:11:01;;;;;;;16.45;9.00;;;;;;;;;;5057616;28;20095;-64
2023/05/23 01:13:29;;;;;;;13.48;8.30;;;;;;;;;;5075642;28;20051;-64
2023/05/23 01:16:00;;;;;;;14.35;8.70;;;;;;;;;;5075512;28;20040;-64
2023/05/23 01:18:34;;;;;;;16.73;9.13;;;;;;;;;;5075584;28;20420;-64
2023/05/23 01:21:12;;;;;;;16.15;9.13;;;;;;;;;;5041295;28;20041;-64
2023/05/23 01:23:46;;;;;;;10.77;8.27;;;;;;;;;;5040934;28;20074;-64
2023/05/23 01:26:33;;;;;;;14.60;9.02;;;;;;;;;;5057234;28;20041;-64
2023/05/23 01:29:09;;;;;;;13.00;9.13;;;;;;;;;;5075250;28;20044;-64
2023/05/23 01:31:39;;;;;;;14.00;8.55;;;;;;;;;;5057214;28;20047;-64
2023/05/23 01:34:07;;;;;;;14.23;8.70;;;;;;;;;;5057284;28;20481;-64
2023/05/23 01:36:37;;;;;;;15.85;8.55;;;;;;;;;;5074838;28;20064;-64
2023/05/23 01:39:05;;;;;;;17.30;9.07;;;;;;;;;;5075078;28;20409;-64
2023/05/23 01:41:34;;;;;;;14.30;9.23;;;;;;;;;;5075038;28;20032;-64
2023/05/23 01:44:02;;;;;;;15.27;8.77;;;;;;;;;;5040615;28;20048;-64
2023/05/23 01:46:30;;;;;;;16.33;9.25;;;;;;;;;;5057055;28;20048;-64
2023/05/23 01:48:58;;;;;;;15.98;9.23;;;;;;;;;;5057041;28;20490;-64
2023/05/23 01:51:26;;;;;;;15.77;9.27;;;;;;;;;;5057154;28;20040;-64
2023/05/23 01:53:53;;;;;;;13.48;9.40;;;;;;;;;;5056705;28;20052;-64
2023/05/23 01:56:21;;;;;;;16.67;9.73;;;;;;;;;;5056814;28;20037;-64
2023/05/23 01:58:50;;;;;;;14.10;9.73;;;;;;;;;;5056815;28;20044;-64
2023/05/23 02:01:18;;;;;;;13.75;9.88;;;;;;;;;;5056790;28;20043;-64
2023/05/23 02:03:46;;;;;;;12.65;9.65;;;;;;;;;;5056603;28;20071;-64
2023/05/23 02:06:13;;;;;;;19.60;10.20;;;;;;;;;;5074626;28;20048;-63
2023/05/23 02:08:41;;;;;;;16.90;10.38;;;;;;;;;;5056639;28;20086;-64
2023/05/23 02:11:09;;;;;;;13.23;10.07;;;;;;;;;;5074451;28;20407;-63
2023/05/23 02:13:37;;;;;;;18.45;10.90;;;;;;;;;;5056462;28;20135;-64
2023/05/23 02:16:04;;;;;;;18.70;10.40;;;;;;;;;;5074454;28;20043;-64
2023/05/23 02:18:32;;;;;;;16.60;10.40;;;;;;;;;;5056368;28;20070;-64
2023/05/23 02:21:00;;;;;;;15.07;10.57;;;;;;;;;;5074085;28;20055;-64
2023/05/23 02:23:28;;;;;;;18.23;10.35;;;;;;;;;;5056315;28;20051;-64
2023/05/23 02:25:56;;;;;;;13.57;10.48;;;;;;;;;;5056117;28;20044;-64
2023/05/23 02:28:23;;;;;;;15.25;10.30;;;;;;;;;;5055887;28;20075;-64
2023/05/23 02:30:51;;;;;;;20.08;11.05;;;;;;;;;;5056016;28;20043;-63
2023/05/23 02:33:18;;;;;;;18.65;11.98;;;;;;;;;;5055899;28;20048;-63
2023/05/23 02:35:46;;;;;;;17.83;11.35;;;;;;;;;;5056033;28;20127;-64
2023/05/23 02:38:15;;;;;;;21.10;10.90;;;;;;;;;;5055575;28;20080;-64
2023/05/23 02:40:43;;;;;;;17.77;11.55;;;;;;;;;;5055839;28;20425;-64
2023/05/23 02:43:10;;;;;;;16.30;10.85;;;;;;;;;;5055886;28;20190;-63
2023/05/23 02:45:37;;;;;;;16.00;10.98;;;;;;;;;;5055836;28;20048;-63
2023/05/23 02:48:05;;;;;;;21.80;11.82;;;;;;;;;;5055967;28;20414;-63
2023/05/23 02:50:33;;;;;;;15.98;11.10;;;;;;;;;;5073744;28;20045;-63
2023/05/23 02:53:00;;;;;;;21.27;11.15;;;;;;;;;;5055797;28;20506;-63
2023/05/23 02:55:28;;;;;;;18.80;11.68;;;;;;;;;;5073575;28;20037;-63
2023/05/23 02:57:57;;;;;;;18.33;10.95;;;;;;;;;;5073737;28;20054;-64
2023/05/23 03:00:25;;;;;;;17.45;11.27;;;;;;;;;;5073462;28;20041;-64
2023/05/23 03:02:56;;;;;;;18.27;10.50;;;;;;;;;;5039483;28;20048;-64
2023/05/23 03:05:23;;;;;;;14.73;11.05;;;;;;;;;;5073335;28;20071;-63
2023/05/23 03:07:51;;;;;;;16.98;11.07;;;;;;;;;;5055357;28;20078;-63
2023/05/23 03:10:18;;;;;;;14.57;11.43;;;;;;;;;;5055486;28;20094;-64
2023/05/23 03:12:47;;;;;;;20.23;11.38;;;;;;;;;;5073285;28;20471;-63
2023/05/23 03:15:16;;;;;;;15.52;10.77;;;;;;;;;;5055238;28;20044;-64
2023/05/23 03:17:44;;;;;;;16.48;11.05;;;;;;;;;;5055249;28;20037;-63
2023/05/23 03:20:15;;;;;;;19.98;11.15;;;;;;;;;;5054668;28;20044;-63
2023/05/23 03:22:44;;;;;;;13.88;10.75;;;;;;;;;;5054992;28;20048;-64
2023/05/23 03:25:12;;;;;;;16.10;11.13;;;;;;;;;;5055114;28;20094;-64
2023/05/23 03:27:39;;;;;;;19.98;11.25;;;;;;;;;;5055128;28;20102;-64
2023/05/23 03:30:07;;;;;;;13.27;10.27;;;;;;;;;;5054926;28;20556;-64
2023/05/23 03:32:36;;;;;;;21.40;10.90;;;;;;;;;;5038300;28;20525;-64
2023/05/23 03:35:04;;;;;;;19.13;11.13;;;;;;;;;;5054647;28;20123;-64
2023/05/23 03:37:31;;;;;;;15.68;10.18;;;;;;;;;;5072635;28;20048;-63
2023/05/23 03:39:59;;;;;;;18.27;11.57;;;;;;;;;;5054242;28;20056;-63
2023/05/23 03:42:28;;;;;;;15.50;10.52;;;;;;;;;;5054902;28;20094;-63
2023/05/23 03:44:55;;;;;;;16.10;11.23;;;;;;;;;;5054650;28;20043;-62
2023/05/23 03:47:23;;;;;;;15.48;10.93;;;;;;;;;;5054138;28;20462;-63
2023/05/23 03:49:51;;;;;;;16.88;10.63;;;;;;;;;;5054593;28;20036;-63
2023/05/23 03:52:19;;;;;;;14.57;10.65;;;;;;;;;;5053627;28;20445;-63
2023/05/23 03:54:47;;;;;;;19.48;11.35;;;;;;;;;;5038594;28;20390;-63
2023/05/23 03:57:15;;;;;;;16.90;11.73;;;;;;;;;;5052970;28;20036;-63
2023/05/23 03:59:43;;;;;;;17.92;11.23;;;;;;;;;;5071606;28;20502;-63
2023/05/23 04:02:12;;;;;;;16.88;10.95;;;;;;;;;;5054409;28;20037;-64
2023/05/23 04:04:40;;;;;;;16.55;10.98;;;;;;;;;;5072921;28;20418;-63
2023/05/23 04:07:08;;;;;;;21.67;11.20;;;;;;;;;;5054590;28;20094;-63
2023/05/23 04:09:38;;;;;;;15.35;11.15;;;;;;;;;;5054485;28;20036;-63
2023/05/23 04:12:10;;;;;;;17.67;11.50;;;;;;;;;;5054564;28;20383;-63
2023/05/23 04:14:38;;;;;;;14.50;10.85;;;;;;;;;;5054521;28;20051;-63
2023/05/23 04:17:07;;;;;;;21.50;10.15;;;;;;;;;;5054791;28;20362;-63
2023/05/23 04:19:35;;;;;;;17.42;11.38;;;;;;;;;;5054432;28;20068;-63
2023/05/23 04:22:03;;;;;;;18.88;11.00;;;;;;;;;;5072445;28;20036;-63
2023/05/23 04:24:32;;;;;;;15.15;11.00;;;;;;;;;;5037944;28;20094;-63
2023/05/23 04:26:59;;;;;;;14.15;10.27;;;;;;;;;;5054774;28;20409;-63
2023/05/23 04:29:30;;;;;;;16.63;10.45;;;;;;;;;;5054416;28;20041;-63
2023/05/23 04:31:58;;;;;;;16.00;10.60;;;;;;;;;;5054793;28;20059;-63
2023/05/23 04:34:25;;;;;;;16.73;11.40;;;;;;;;;;5058163;28;20075;-63
2023/05/23 04:36:53;;;;;;;16.42;10.30;;;;;;;;;;5075972;28;20048;-63
2023/05/23 04:39:21;;;;;;;17.58;10.38;;;;;;;;;;5056934;28;20040;-63
2023/05/23 04:42:12;;;;;;;17.60;11.32;;;;;;;;;;5066503;28;20079;-63
2023/05/23 04:44:50;;;;;;;18.42;12.00;;;;;;;;;;5056722;28;20075;-63
2023/05/23 04:47:28;;;;;;;21.20;11.63;;;;;;;;;;5056670;28;20063;-63
2023/05/23 04:50:05;;;;;;;18.30;11.60;;;;;;;;;;5074645;28;20040;-63
2023/05/23 04:52:33;;;;;;;17.00;10.40;;;;;;;;;;5055789;28;20048;-63
2023/05/23 04:55:01;;;;;;;17.40;11.32;;;;;;;;;;5059105;28;20555;-63
2023/05/23 04:57:29;;;;;;;16.75;10.32;;;;;;;;;;5056894;28;20130;-63
2023/05/23 04:59:57;;;;;;;16.88;11.38;;;;;;;;;;5057021;28;20132;-63
2023/05/23 05:02:26;;;;;;;22.02;11.30;;;;;;;;;;5056822;28;20040;-63
2023/05/23 05:04:54;;;;;;;16.70;10.95;;;;;;;;;;5056666;28;20040;-63
2023/05/23 05:07:21;;;;;;;18.00;11.40;;;;;;;;;;5056496;28;20421;-63
2023/05/23 05:09:49;;;;;;;17.33;10.25;;;;;;;;;;5074542;28;20040;-63
2023/05/23 05:12:17;;;;;;;15.18;10.48;;;;;;;;;;5056463;28;20078;-63
2023/05/23 05:14:44;;;;;;;17.73;10.63;;;;;;;;;;5074233;28;20132;-64
2023/05/23 05:17:12;;;;;;;20.45;10.57;;;;;;;;;;5064124;28;20046;-63
2023/05/23 05:19:51;;;;;;;18.02;10.63;;;;;;;;;;5062737;28;20102;-63
2023/05/23 05:22:18;;;;;;;17.85;10.18;;;;;;;;;;5079353;28;20105;-63
2023/05/23 05:24:46;;;;;;;12.60;9.40;;;;;;;;;;5062910;28;20086;-64
2023/05/23 05:27:13;;;;;;;13.35;9.77;;;;;;;;;;5056174;28;20094;-64
2023/05/23 05:29:41;;;;;;;18.00;9.75;;;;;;;;;;5055980;28;20040;-64
2023/05/23 05:32:09;;;;;;;12.15;9.05;;;;;;;;;;5058342;28;20048;-64
2023/05/23 05:34:36;;;;;;;12.73;8.65;;;;;;;;;;5055775;28;20037;-64
2023/05/23 05:37:05;;;;;;;14.52;9.57;;;;;;;;;;5011283;28;1287834;-64
2023/05/23 05:39:33;;;;;;;15.40;8.80;;;;;;;;;;5057236;28;20063;-64
2023/05/23 05:42:02;;;;;;;11.38;9.23;;;;;;;;;;5057200;28;20040;-64
2023/05/23 05:44:30;;;;;;;12.70;8.57;;;;;;;;;;5056465;28;20144;-64
2023/05/23 05:46:58;;;;;;;18.10;9.38;;;;;;;;;;5057091;28;20044;-65
2023/05/23 05:49:25;;;;;;;15.63;9.57;;;;;;;;;;5056713;28;20576;-64
2023/05/23 05:51:54;;;;;;;14.07;8.70;;;;;;;;;;5056947;28;20067;-64
2023/05/23 05:54:22;;;;;;;10.18;8.27;;;;;;;;;;5061798;28;20059;-64
2023/05/23 05:56:50;;;;;;;16.08;8.52;;;;;;;;;;5040396;28;20509;-64
2023/05/23 05:59:17;;;;;;;15.70;8.80;;;;;;;;;;5056638;28;20044;-64
2023/05/23 06:01:45;;;;;;;14.23;8.48;;;;;;;;;;5074696;28;20040;-64
2023/05/23 06:04:13;;;;;;;13.10;9.10;;;;;;;;;;5040429;28;20071;-64
2023/05/23 06:06:41;;;;;;;14.35;9.32;;;;;;;;;;5075037;28;20111;-64
2023/05/23 06:09:09;;;;;;;11.48;8.40;;;;;;;;;;5059112;28;20044;-64
2023/05/23 06:11:39;;;;;;;13.07;8.50;;;;;;;;;;5056748;28;20044;-64
2023/05/23 06:14:08;;;;;;;14.60;8.40;;;;;;;;;;5056295;28;20048;-64
2023/05/23 06:16:39;;;;;;;13.85;8.60;;;;;;;;;;5056380;28;20127;-63
2023/05/23 06:19:07;;;;;;;12.50;8.30;;;;;;;;;;5056417;28;20106;-64
2023/05/23 06:21:36;;;;;;;12.80;8.20;;;;;;;;;;5056438;28;20071;-64
2023/05/23 06:24:06;;;;;;;14.10;8.38;;;;;;;;;;5056397;28;20056;-65
2023/05/23 06:26:33;;;;;;;12.90;7.82;;;;;;;;;;5040354;28;20071;-65
2023/05/23 06:29:01;;;;;;;11.75;7.25;;;;;;;;;;5056289;28;20040;-65
2023/05/23 06:31:28;;;;;;;14.30;7.60;;;;;;;;;;5073858;28;20171;-66
2023/05/23 06:33:57;;;;;;;12.27;7.95;;;;;;;;;;5056510;28;20482;-65
2023/05/23 06:36:25;;;;;;;13.27;8.10;;;;;;;;;;5056024;28;20052;-64
2023/05/23 06:38:54;;;;;;;13.82;7.57;;;;;;;;;;5056025;28;20110;-65
2023/05/23 06:41:22;;;;;;;14.27;7.45;;;;;;;;;;5056014;28;20044;-65
2023/05/23 06:43:52;;;;;;;13.38;7.03;;;;;;;;;;5055961;28;20044;-65
2023/05/23 06:46:24;;;;;;;9.35;7.03;;;;;;;;;;5055934;28;20048;-65
2023/05/23 06:48:52;;;;;;;10.32;6.72;;;;;;;;;;5055948;28;20044;-65
2023/05/23 06:51:39;;;;;;;8.27;6.28;;;;;;;;;;5055946;28;20063;-64
2023/05/23 06:54:07;;;;;;;8.07;5.90;;;;;;;;;;5055734;28;20043;-63
2023/05/23 06:56:35;;;;;;;6.63;5.93;;;;;;;;;;5055132;28;20379;-63
2023/05/23 06:59:03;;;;;;;8.05;5.80;;;;;;;;;;5055682;28;20113;-63
2023/05/23 07:01:31;;;;;;;12.43;7.00;;;;;;;;;;5055704;28;20517;-63
2023/05/23 07:03:59;;;;;;;9.23;6.55;;;;;;;;;;5055093;28;20044;-63
2023/05/23 07:06:26;;;;;;;8.80;5.35;;;;;;;;;;5055652;28;20045;-63
2023/05/23 07:08:54;;;;;;;6.65;4.95;;;;;;;;;;5073484;28;20041;-63
2023/05/23 07:11:23;;;;;;;9.60;5.63;;;;;;;;;;5055240;28;20051;-63
2023/05/23 07:13:54;;;;;;;8.82;5.60;;;;;;;;;;5055157;28;20051;-63
2023/05/23 07:16:35;;;;;;;6.05;5.18;;;;;;;;;;5055413;28;20079;-63
2023/05/23 07:19:06;;;;;;;7.57;5.43;;;;;;;;;;5055199;28;20122;-63
2023/05/23 07:21:39;;;;;;;7.18;5.90;;;;;;;;;;5055083;28;20044;-63
2023/05/23 07:24:07;;;;;;;8.70;5.22;;;;;;;;;;5073066;28;20558;-63
2023/05/23 07:26:35;;;;;;;7.50;5.28;;;;;;;;;;5055243;28;20102;-63
2023/05/23 07:29:02;;;;;;;9.73;5.50;;;;;;;;;;5054995;28;20044;-64
2023/05/23 07:31:30;;;;;;;7.75;5.53;;;;;;;;;;5055148;28;20036;-64
2023/05/23 07:33:59;;;;;;;6.07;4.90;;;;;;;;;;5055045;28;20506;-64
2023/05/23 07:36:34;;;;;;;6.55;4.82;;;;;;;;;;5055044;28;20083;-64
2023/05/23 07:39:03;;;;;;;104.90;11.45;;;;;;;;;;5055152;28;20048;-64
2023/05/23 07:41:31;;;;;;;13.57;5.07;;;;;;;;;;5055028;28;20344;-64
2023/05/23 07:43:58;;;;;;;7.65;5.03;;;;;;;;;;5054926;28;20036;-64
2023/05/23 07:46:26;;;;;;;34.20;7.25;;;;;;;;;;5072780;28;20052;-64
2023/05/23 07:48:54;;;;;;;21.70;6.43;;;;;;;;;;5072929;28;20047;-64
2023/05/23 07:51:22;;;;;;;34.90;9.32;;;;;;;;;;5054743;28;20110;-64
2023/05/23 07:53:51;;;;;;;9.05;4.93;;;;;;;;;;5038468;28;20040;-64
2023/05/23 07:56:21;;;;;;;6.65;5.25;;;;;;;;;;5054635;28;20090;-64
2023/05/23 07:58:49;;;;;;;9.82;4.18;;;;;;;;;;5054928;28;20113;-64
2023/05/23 08:01:17;;;;;;;8.15;4.93;;;;;;;;;;5072357;28;20047;-65
2023/05/23 08:04:05;;;;;;;8.27;5.40;;;;;;;;;;5071578;28;20048;-64
2023/05/23 08:06:48;;;;;;;10.55;4.80;;;;;;;;;;5054168;28;20441;-65
2023/05/23 08:09:41;;;;;;;64.88;9.90;;;;;;;;;;5054009;28;20118;-65
2023/05/23 08:12:12;;;;;;;9.23;4.32;;;;;;;;;;5054200;28;20158;-65
2023/05/23 08:14:40;;;;;;;7.88;4.15;;;;;;;;;;5054404;28;20052;-65
2023/05/23 08:17:23;;;;;;;6.00;4.22;;;;;;;;;;5054562;28;20041;-65
2023/05/23 08:19:51;;;;;;;8.43;4.03;;;;;;;;;;5054512;28;20052;-64
2023/05/23 08:22:19;;;;;;;8.68;4.25;;;;;;;;;;5054435;28;20033;-65
2023/05/23 08:24:47;;;;;;;6.75;3.83;;;;;;;;;;5054291;28;20048;-64
2023/05/23 08:27:15;;;;;;;5.93;4.25;;;;;;;;;;5054584;28;20120;-64
2023/05/23 08:29:44;;;;;;;4.75;3.88;;;;;;;;;;5054294;28;20564;-64
2023/05/23 08:32:12;;;;;;;9.15;4.95;;;;;;;;;;5054204;28;20490;-64
2023/05/23 08:34:40;;;;;;;7.25;4.07;;;;;;;;;;5054542;28;20051;-64
2023/05/23 08:37:08;;;;;;;5.43;4.57;;;;;;;;;;5054251;28;20048;-64
2023/05/23 08:39:36;;;;;;;6.32;4.28;;;;;;;;;;5054204;28;20047;-64
2023/05/23 08:42:32;;;;;;;5.75;3.95;;;;;;;;;;5063697;28;20048;-64
2023/05/23 08:45:00;;;;;;;8.15;6.22;;;;;;;;;;5054168;28;20852;-64
2023/05/23 08:47:28;;;;;;;6.53;3.88;;;;;;;;;;5054121;28;20135;-64
2023/05/23 08:50:02;;;;;;;4.82;4.28;;;;;;;;;;5072145;28;20044;-64
2023/05/23 08:52:33;;;;;;;9.02;4.13;;;;;;;;;;5054230;28;20132;-63
2023/05/23 08:55:01;;;;;;;6.03;4.70;;;;;;;;;;5054311;28;20094;-63
2023/05/23 08:57:30;;;;;;;7.45;4.07;;;;;;;;;;5054256;28;20037;-63
2023/05/23 09:00:13;;;;;;;8.15;4.20;;;;;;;;;;5054183;28;20047;-64
2023/05/23 09:02:44;;;;;;;7.95;4.45;;;;;;;;;;5054005;28;20190;-63
2023/05/23 09:05:27;;;;;;;7.78;4.35;;;;;;;;;;5053941;28;20094;-64
2023/05/23 09:07:55;;;;;;;7.72;3.92;;;;;;;;;;5054341;28;20045;-63
2023/05/23 09:10:24;;;;;;;8.40;4.30;;;;;;;;;;5054055;28;20045;-64
2023/05/23 09:12:51;;;;;;;7.25;4.22;;;;;;;;;;5053503;28;20048;-64
2023/05/23 09:15:21;;;;;;;7.35;3.90;;;;;;;;;;5053180;28;20091;-63
2023/05/23 09:17:49;;;;;;;7.60;3.75;;;;;;;;;;5071777;28;20060;-63
2023/05/23 09:20:17;;;;;;;5.38;3.58;;;;;;;;;;5075351;28;20045;-64
2023/05/23 09:22:54;;;;;;;6.93;3.67;;;;;;;;;;5057406;28;20059;-64
2023/05/23 09:25:22;;;;;;;6.45;4.07;;;;;;;;;;5057359;28;20094;-63
2023/05/23 09:27:53;;;;;;;5.38;3.60;;;;;;;;;;5057070;28;20050;-64
2023/05/23 09:30:20;;;;;;;7.90;3.88;;;;;;;;;;5057328;28;20071;-64
2023/05/23 09:33:06;;;;;;;12.45;4.25;;;;;;;;;;5056610;28;20040;-64
2023/05/23 09:35:34;;;;;;;6.90;4.22;;;;;;;;;;5056692;28;20106;-63
2023/05/23 09:38:01;;;;;;;6.28;3.70;;;;;;;;;;5056524;28;20499;-64
2023/05/23 09:40:31;;;;;;;7.25;3.75;;;;;;;;;;5057327;28;20465;-64
2023/05/23 09:43:04;;;;;;;5.97;3.35;;;;;;;;;;5075355;28;20048;-64
2023/05/23 09:45:32;;;;;;;9.95;3.88;;;;;;;;;;5057126;28;20131;-64
2023/05/23 09:48:01;;;;;;;5.40;3.60;;;;;;;;;;5074963;28;20032;-64
2023/05/23 09:50:32;;;;;;;5.30;3.42;;;;;;;;;;5057029;28;20044;-64
2023/05/23 09:53:00;;;;;;;6.22;3.80;;;;;;;;;;5057043;28;20054;-64
2023/05/23 09:55:28;;;;;;;5.82;3.85;;;;;;;;;;5074885;28;20068;-64
2023/05/23 09:57:58;;;;;;;6.00;3.35;;;;;;;;;;5074803;28;20506;-64
2023/05/23 10:00:27;;;;;;;6.07;3.58;;;;;;;;;;5074780;28;20402;-64
2023/05/23 10:02:54;;;;;;;5.97;3.80;;;;;;;;;;5074776;28;20106;-64
2023/05/23 10:05:37;;;;;;;4.97;3.72;;;;;;;;;;5074578;28;20068;-63
2023/05/23 10:08:09;;;;;;;5.40;3.38;;;;;;;;;;5074642;28;20086;-64
2023/05/23 10:10:54;;;;;;;5.85;3.65;;;;;;;;;;5074332;28;20045;-64
2023/05/23 10:13:22;;;;;;;6.38;4.10;;;;;;;;;;5056868;28;20071;-64
2023/05/23 10:15:49;;;;;;;5.93;4.20;;;;;;;;;;5056595;28;20040;-63
2023/05/23 10:18:23;;;;;;;6.93;3.72;;;;;;;;;;5074328;28;20051;-64
2023/05/23 10:20:53;;;;;;;4.50;3.78;;;;;;;;;;5074548;28;20054;-64
2023/05/23 10:23:21;;;;;;;10.48;3.60;;;;;;;;;;5074360;28;20478;-64
2023/05/23 10:25:48;;;;;;;6.32;3.65;;;;;;;;;;5074157;28;20044;-64
2023/05/23 10:28:16;;;;;;;8.77;4.20;;;;;;;;;;5074499;28;20036;-63
2023/05/23 10:30:43;;;;;;;6.18;3.63;;;;;;;;;;5073087;28;20041;-64
2023/05/23 10:33:13;;;;;;;7.82;3.42;;;;;;;;;;5074141;28;20449;-64
2023/05/23 10:35:47;;;;;;;10.82;3.65;;;;;;;;;;5073984;28;20083;-63
2023/05/23 10:38:33;;;;;;;6.30;3.50;;;;;;;;;;5074284;28;20055;-64
2023/05/23 10:41:10;;;;;;;5.35;3.85;;;;;;;;;;5074004;28;20044;-63
2023/05/23 10:43:56;;;;;;;6.30;3.70;;;;;;;;;;5073996;28;20037;-64
2023/05/23 10:46:44;;;;;;;6.65;3.78;;;;;;;;;;5073713;28;20045;-64
2023/05/23 10:49:11;;;;;;;6.90;3.90;;;;;;;;;;5073569;28;20116;-64
2023/05/23 10:51:39;;;;;;;6.10;3.47;;;;;;;;;;5073715;28;20508;-64
2023/05/23 10:54:11;;;;;;;7.53;3.88;;;;;;;;;;5073799;28;20050;-64
2023/05/23 10:56:38;;;;;;;7.97;3.70;;;;;;;;;;5074158;28;20071;-64
2023/05/23 10:59:06;;;;;;;5.93;3.90;;;;;;;;;;5073713;28;20497;-64
2023/05/23 11:01:38;;;;;;;8.80;3.30;;;;;;;;;;5073727;28;20081;-65
2023/05/23 11:04:06;;;;;;;9.77;2.90;;;;;;;;;;5073543;28;20090;-64
2023/05/23 11:06:41;;;;;;;7.47;3.20;;;;;;;;;;5055896;28;20098;-64
2023/05/23 11:09:12;;;;;;;6.68;3.13;;;;;;;;;;5055809;28;20387;-65
2023/05/23 11:11:57;;;;;;;7.20;2.90;;;;;;;;;;5073285;28;20086;-64
2023/05/23 11:14:31;;;;;;;6.50;3.72;;;;;;;;;;5073383;28;20115;-64
2023/05/23 11:16:59;;;;;;;4.63;3.03;;;;;;;;;;5072169;28;20055;-65
2023/05/23 11:19:28;;;;;;;8.20;3.28;;;;;;;;;;5073119;28;20047;-64
2023/05/23 11:22:02;;;;;;;9.75;3.40;;;;;;;;;;5073360;28;20127;-64
2023/05/23 11:24:49;;;;;;;5.45;3.80;;;;;;;;;;5073844;28;20048;-63
2023/05/23 11:27:37;;;;;;;9.65;4.40;;;;;;;;;;5072940;28;20448;-64
2023/05/23 11:30:12;;;;;;;5.90;3.78;;;;;;;;;;5073047;28;20040;-64
2023/05/23 11:32:41;;;;;;;7.22;3.28;;;;;;;;;;5073101;28;20037;-64
2023/05/23 11:35:11;;;;;;;4.53;3.72;;;;;;;;;;5073224;28;20024;-65
2023/05/23 11:37:39;;;;;;;6.88;3.78;;;;;;;;;;5072941;28;20414;-63
2023/05/23 11:40:26;;;;;;;7.05;3.78;;;;;;;;;;5072940;28;20036;-63
2023/05/23 11:42:54;;;;;;;4.28;3.15;;;;;;;;;;5072909;28;20044;-64
2023/05/23 11:45:22;;;;;;;7.15;3.20;;;;;;;;;;5072824;28;20042;-63
2023/05/23 11:47:50;;;;;;;5.57;3.22;;;;;;;;;;5055080;28;20040;-63
2023/05/23 11:50:19;;;;;;;5.05;2.95;;;;;;;;;;5072779;28;20036;-63
2023/05/23 11:52:50;;;;;;;3.92;3.03;;;;;;;;;;5054860;28;20049;-63
2023/05/23 11:55:21;;;;;;;5.13;2.95;;;;;;;;;;5072535;28;20048;-63
2023/05/23 11:57:50;;;;;;;7.53;2.90;;;;;;;;;;5072913;28;20036;-63
2023/05/23 12:00:18;;;;;;;5.53;3.05;;;;;;;;;;5072673;28;20040;-64
2023/05/23 12:02:47;;;;;;;5.47;2.80;;;;;;;;;;5072616;28;20046;-64
2023/05/23 12:05:15;;;;;;;3.88;2.50;;;;;;;;;;5054840;28;20040;-63
2023/05/23 12:07:47;;;;;;;3.55;2.60;;;;;;;;;;5072460;28;20043;-63
2023/05/23 12:10:15;;;;;;;4.10;3.00;;;;;;;;;;5072595;28;20048;-63
2023/05/23 12:12:43;;;;;;;5.38;2.92;;;;;;;;;;5072418;28;20033;-64
2023/05/23 12:15:11;;;;;;;4.03;2.85;;;;;;;;;;5072418;28;20055;-64
2023/05/23 12:17:44;;;;;;;3.75;2.53;;;;;;;;;;5072484;28;20037;-63
2023/05/23 12:20:12;;;;;;;5.07;2.47;;;;;;;;;;5072429;28;20402;-63
2023/05/23 12:22:39;;;;;;;5.78;2.75;;;;;;;;;;5072642;28;20530;-64
2023/05/23 12:25:10;;;;;;;5.93;2.70;;;;;;;;;;5072387;28;20044;-63
2023/05/23 12:27:39;;;;;;;6.57;3.15;;;;;;;;;;5072338;28;20051;-64
2023/05/23 12:30:11;;;;;;;5.93;2.78;;;;;;;;;;5072126;28;20087;-64
2023/05/23 12:32:42;;;;;;;5.15;3.17;;;;;;;;;;5072195;28;20041;-64
2023/05/23 12:35:13;;;;;;;6.28;2.85;;;;;;;;;;5070851;28;20441;-61
2023/05/23 12:37:44;;;;;;;8.23;3.33;;;;;;;;;;5071454;28;20056;-63
2023/05/23 12:40:16;;;;;;;8.18;3.47;;;;;;;;;;5071138;28;20044;-63
2023/05/23 12:42:53;;;;;;;5.95;3.38;;;;;;;;;;5068442;28;20040;-65
2023/05/23 12:45:23;;;;;;;7.28;3.50;;;;;;;;;;5068127;28;20047;-65
2023/05/23 12:47:50;;;;;;;6.75;3.60;;;;;;;;;;5063327;28;20044;-64
2023/05/23 12:50:20;;;;;;;6.70;3.60;;;;;;;;;;5071619;28;20414;-64
2023/05/23 12:52:48;;;;;;;6.13;3.60;;;;;;;;;;5065608;28;20048;-64
2023/05/23 12:55:15;;;;;;;4.65;3.65;;;;;;;;;;5076392;28;20058;-65
2023/05/23 12:57:43;;;;;;;9.40;4.20;;;;;;;;;;5065748;28;20047;-64
2023/05/23 13:00:11;;;;;;;4.80;3.90;;;;;;;;;;5068761;28;20040;-64
2023/05/23 13:02:38;;;;;;;6.72;3.90;;;;;;;;;;5061673;28;20033;-65
2023/05/23 13:05:06;;;;;;;5.65;4.10;;;;;;;;;;5064417;28;20586;-65
2023/05/23 13:07:34;;;;;;;6.22;3.90;;;;;;;;;;5059094;28;20093;-65
2023/05/23 13:10:02;;;;;;;9.55;4.35;;;;;;;;;;5071225;28;20398;-64
2023/05/23 13:12:29;;;;;;;8.85;4.30;;;;;;;;;;5075386;28;20040;-65
2023/05/23 13:14:57;;;;;;;7.03;4.45;;;;;;;;;;5073526;28;20444;-64
2023/05/23 13:17:25;;;;;;;5.45;4.10;;;;;;;;;;5075003;28;20033;-65
2023/05/23 13:19:52;;;;;;;7.57;4.80;;;;;;;;;;5075199;28;20079;-64
2023/05/23 13:22:19;;;;;;;6.25;4.75;;;;;;;;;;5057184;28;20047;-65
2023/05/23 13:24:47;;;;;;;7.00;4.95;;;;;;;;;;5074841;28;20040;-65
2023/05/23 13:27:14;;;;;;;11.20;5.05;;;;;;;;;;5074730;28;20090;-65
2023/05/23 13:29:42;;;;;;;5.55;4.30;;;;;;;;;;5056908;28;20046;-65
2023/05/23 13:32:09;;;;;;;6.65;4.35;;;;;;;;;;5074686;28;20123;-65
2023/05/23 13:34:37;;;;;;;6.65;4.93;;;;;;;;;;5056780;28;20106;-65
2023/05/23 13:37:05;;;;;;;7.60;5.35;;;;;;;;;;5062862;28;20052;-65
2023/05/23 13:39:32;;;;;;;6.15;5.07;;;;;;;;;;5064390;28;20043;-64
2023/05/23 13:42:00;;;;;;;6.03;4.82;;;;;;;;;;5080478;28;20067;-64
2023/05/23 13:44:27;;;;;;;7.55;4.78;;;;;;;;;;5074462;28;20482;-64
2023/05/23 13:46:58;;;;;;;7.47;4.28;;;;;;;;;;5074612;28;20056;-63
2023/05/23 13:49:25;;;;;;;5.72;4.10;;;;;;;;;;5074549;28;20204;-63
2023/05/23 13:51:53;;;;;;;6.90;3.85;;;;;;;;;;5074540;28;20044;-63
2023/05/23 13:54:21;;;;;;;6.15;4.22;;;;;;;;;;5074413;28;20033;-64
2023/05/23 13:56:48;;;;;;;12.52;4.03;;;;;;;;;;5074284;28;20036;-63
2023/05/23 13:59:19;;;;;;;7.07;3.70;;;;;;;;;;5074632;28;20106;-63
2023/05/23 14:01:47;;;;;;;6.65;3.85;;;;;;;;;;5074241;28;20036;-63
2023/05/23 14:04:15;;;;;;;11.63;3.80;;;;;;;;;;5071752;28;20506;-63
2023/05/23 14:06:42;;;;;;;6.75;3.90;;;;;;;;;;5059932;28;20462;-63
2023/05/23 14:09:11;;;;;;;8.57;5.05;;;;;;;;;;5068907;28;20407;-62
2023/05/23 14:11:41;;;;;;;7.03;3.30;;;;;;;;;;5067876;28;20043;-63
2023/05/23 14:14:09;;;;;;;7.18;3.53;;;;;;;;;;5073885;28;20115;-63
2023/05/23 14:16:37;;;;;;;7.65;3.35;;;;;;;;;;5074117;28;20036;-63
2023/05/23 14:19:04;;;;;;;5.05;2.90;;;;;;;;;;5073933;28;20053;-63
2023/05/23 14:21:33;;;;;;;8.88;3.50;;;;;;;;;;5073748;28;20043;-63
2023/05/23 14:24:01;;;;;;;7.82;3.80;;;;;;;;;;5067520;28;20094;-63
2023/05/23 14:26:28;;;;;;;6.45;3.40;;;;;;;;;;5056345;28;20154;-63
2023/05/23 14:28:56;;;;;;;4.60;2.78;;;;;;;;;;5054032;28;20403;-63
2023/05/23 14:31:24;;;;;;;5.13;3.00;;;;;;;;;;5066482;28;20043;-63
2023/05/23 14:33:51;;;;;;;7.30;3.03;;;;;;;;;;5073015;28;20067;-63
2023/05/23 14:36:19;;;;;;;7.97;3.50;;;;;;;;;;5055925;28;20045;-63
2023/05/23 14:38:46;;;;;;;5.55;3.00;;;;;;;;;;5073385;28;20542;-63
2023/05/23 14:41:14;;;;;;;5.38;3.15;;;;;;;;;;5077666;28;20076;-63
2023/05/23 14:43:41;;;;;;;5.90;2.92;;;;;;;;;;5073458;28;20390;-63
2023/05/23 14:46:09;;;;;;;5.97;3.00;;;;;;;;;;5073352;28;20139;-63
2023/05/23 14:48:36;;;;;;;7.03;2.95;;;;;;;;;;5073483;28;20040;-65